Rio Rico, Arizona
Current Conditions -  °F | °C
As of 2:54 PM on Monday 26 Jan 2015 (Local Time) from KOLS Reporting Station
Overcast Overcast  
Wind Chill: 69°   Ceiling: 7500
Heat Index: 69°   Visibility: 10mi
Dew Point: 40°   Wind: 10mph
Humidity: 35%   Direction: 140°SE
Pressure: 30.14"   Gusts: NA
Location:  31.49°N, 111.02°W
Report Text: KOLS 262154Z AUTO 14009KT 10SM OVC075 21/04 A3014 RMK AO2 RAB2057E07 SLP162 P0000 T02060044
Loading
Personal Weather Stations






























Interactive Weather Map New forecast layout! Learn more

10-Day Weather Forecast

Advertisements
Track Severe Weather on mobile